GSOVN EBBR-EGCC
Flight info
| Callsign | GSOVN |
|---|---|
| Flight time | 0h 59m |
| Altitude | 43000 |
| Route | DENUT L610 LAM UN57 WELIN T420 ELVOS |
| Aircraft | LJ35/M-SGHRWXY/SB1 |
Departure
| Time | 2026-05-07 19:31 |
|---|---|
| Airport | Brussels Airport (EBBR) |
Arrival
| Time | 2026-05-07 20:31 |
|---|---|
| Airport | Manchester Airport (EGCC) |
| Time | Latitude | Longitude | Altitude | Speed | Heading |
|---|---|---|---|---|---|
| 2026-05-07 19:02 | 50.89676 | 4.47038 | 179 ft | 0 kts | 153° |
| 2026-05-07 19:22 | 50.89675 | 4.47039 | 179 ft | 1 kts | 153° |
| 2026-05-07 19:22 | 50.89661 | 4.47050 | 179 ft | 4 kts | 139° |
| 2026-05-07 19:22 | 50.89670 | 4.47122 | 179 ft | 10 kts | 60° |
| 2026-05-07 19:22 | 50.89710 | 4.47242 | 179 ft | 15 kts | 63° |
| 2026-05-07 19:23 | 50.89740 | 4.47327 | 179 ft | 2 kts | 39° |
| 2026-05-07 19:23 | 50.89785 | 4.47306 | 179 ft | 12 kts | 329° |
| 2026-05-07 19:23 | 50.89867 | 4.47279 | 179 ft | 13 kts | 49° |
| 2026-05-07 19:23 | 50.89912 | 4.47435 | 179 ft | 18 kts | 66° |
| 2026-05-07 19:24 | 50.89967 | 4.47594 | 179 ft | 15 kts | 28° |
| 2026-05-07 19:24 | 50.90063 | 4.47552 | 179 ft | 15 kts | 335° |
| 2026-05-07 19:24 | 50.90089 | 4.47533 | 179 ft | 0 kts | 335° |
| 2026-05-07 19:25 | 50.90093 | 4.47530 | 179 ft | 5 kts | 335° |
| 2026-05-07 19:25 | 50.90158 | 4.47484 | 179 ft | 13 kts | 336° |
| 2026-05-07 19:25 | 50.90251 | 4.47451 | 179 ft | 16 kts | 25° |
| 2026-05-07 19:26 | 50.90302 | 4.47605 | 179 ft | 16 kts | 66° |
| 2026-05-07 19:26 | 50.90352 | 4.47783 | 179 ft | 20 kts | 65° |
| 2026-05-07 19:26 | 50.90414 | 4.47986 | 179 ft | 21 kts | 65° |
| 2026-05-07 19:26 | 50.90471 | 4.48185 | 179 ft | 20 kts | 65° |
| 2026-05-07 19:27 | 50.90529 | 4.48382 | 179 ft | 14 kts | 64° |
| 2026-05-07 19:27 | 50.90569 | 4.48475 | 179 ft | 9 kts | 20° |
| 2026-05-07 19:27 | 50.90598 | 4.48464 | 179 ft | 0 kts | 314° |
| 2026-05-07 19:29 | 50.90622 | 4.48421 | 180 ft | 15 kts | 310° |
| 2026-05-07 19:30 | 50.90669 | 4.48284 | 180 ft | 16 kts | 273° |
| 2026-05-07 19:30 | 50.90661 | 4.48219 | 180 ft | 0 kts | 246° |
| 2026-05-07 19:30 | 50.90660 | 4.48216 | 180 ft | 0 kts | 246° |
| 2026-05-07 19:30 | 50.90658 | 4.48208 | 180 ft | 0 kts | 246° |
| 2026-05-07 19:31 | 50.90658 | 4.48207 | 180 ft | 1 kts | 246° |
| 2026-05-07 19:31 | 50.90587 | 4.47961 | 181 ft | 81 kts | 245° |
| 2026-05-07 19:31 | 50.90191 | 4.46550 | 655 ft | 168 kts | 247° |
| 2026-05-07 19:31 | 50.89812 | 4.44532 | 1987 ft | 216 kts | 266° |
| 2026-05-07 19:32 | 50.90085 | 4.42005 | 3570 ft | 251 kts | 292° |
| 2026-05-07 19:32 | 50.91011 | 4.39517 | 5395 ft | 277 kts | 300° |
| 2026-05-07 19:32 | 50.91866 | 4.36486 | 6052 ft | 324 kts | 288° |
| 2026-05-07 19:32 | 50.92270 | 4.33187 | 6025 ft | 288 kts | 274° |
| 2026-05-07 19:33 | 50.92399 | 4.30193 | 6011 ft | 258 kts | 278° |
| 2026-05-07 19:33 | 50.93002 | 4.27660 | 6027 ft | 238 kts | 303° |
| 2026-05-07 19:33 | 50.93972 | 4.25625 | 6014 ft | 227 kts | 307° |
| 2026-05-07 19:33 | 50.94969 | 4.23579 | 6088 ft | 246 kts | 308° |
| 2026-05-07 19:34 | 50.96003 | 4.21517 | 6705 ft | 242 kts | 308° |
| 2026-05-07 19:34 | 50.97067 | 4.19404 | 7060 ft | 254 kts | 308° |
| 2026-05-07 19:34 | 50.98165 | 4.17204 | 7084 ft | 254 kts | 308° |
| 2026-05-07 19:34 | 50.99263 | 4.15000 | 7084 ft | 255 kts | 308° |
| 2026-05-07 19:35 | 51.00371 | 4.12782 | 7150 ft | 259 kts | 308° |
| 2026-05-07 19:35 | 51.01486 | 4.10545 | 8585 ft | 251 kts | 307° |
| 2026-05-07 19:35 | 51.02586 | 4.08337 | 9111 ft | 260 kts | 307° |
| 2026-05-07 19:35 | 51.03714 | 4.06071 | 9726 ft | 262 kts | 307° |
| 2026-05-07 19:36 | 51.04848 | 4.03790 | 10293 ft | 264 kts | 307° |
| 2026-05-07 19:36 | 51.05990 | 4.01490 | 10802 ft | 266 kts | 307° |
| 2026-05-07 19:36 | 51.07142 | 3.99171 | 11329 ft | 268 kts | 307° |
| 2026-05-07 19:36 | 51.08304 | 3.96827 | 11840 ft | 271 kts | 307° |
| 2026-05-07 19:37 | 51.09475 | 3.94465 | 12357 ft | 273 kts | 307° |
| 2026-05-07 19:37 | 51.10653 | 3.92084 | 12867 ft | 275 kts | 307° |
| 2026-05-07 19:37 | 51.11844 | 3.89677 | 13359 ft | 277 kts | 307° |
| 2026-05-07 19:37 | 51.13043 | 3.87250 | 13904 ft | 282 kts | 307° |
| 2026-05-07 19:38 | 51.14254 | 3.84802 | 14896 ft | 280 kts | 307° |
| 2026-05-07 19:38 | 51.15466 | 3.82345 | 15810 ft | 284 kts | 306° |
| 2026-05-07 19:38 | 51.16692 | 3.79854 | 16726 ft | 287 kts | 306° |
| 2026-05-07 19:38 | 51.17932 | 3.77334 | 17636 ft | 291 kts | 307° |
| 2026-05-07 19:39 | 51.19189 | 3.74780 | 18510 ft | 295 kts | 306° |
| 2026-05-07 19:39 | 51.20443 | 3.72227 | 19296 ft | 297 kts | 306° |
| 2026-05-07 19:39 | 51.21740 | 3.69584 | 20111 ft | 300 kts | 306° |
| 2026-05-07 19:39 | 51.23007 | 3.66963 | 20900 ft | 303 kts | 303° |
| 2026-05-07 19:40 | 51.23906 | 3.63942 | 21698 ft | 302 kts | 284° |
| 2026-05-07 19:40 | 51.24351 | 3.60643 | 22506 ft | 305 kts | 279° |
| 2026-05-07 19:40 | 51.24732 | 3.57302 | 23334 ft | 308 kts | 279° |
| 2026-05-07 19:40 | 51.25173 | 3.53931 | 24076 ft | 311 kts | 281° |
| 2026-05-07 19:41 | 51.25643 | 3.50542 | 24772 ft | 314 kts | 281° |
| 2026-05-07 19:41 | 51.26102 | 3.47114 | 25478 ft | 316 kts | 280° |
| 2026-05-07 19:41 | 51.26552 | 3.43658 | 26178 ft | 319 kts | 280° |
| 2026-05-07 19:41 | 51.27007 | 3.40185 | 26882 ft | 322 kts | 280° |
| 2026-05-07 19:42 | 51.27467 | 3.36662 | 27586 ft | 325 kts | 280° |
| 2026-05-07 19:42 | 51.27923 | 3.33110 | 28292 ft | 328 kts | 280° |
| 2026-05-07 19:42 | 51.28377 | 3.29572 | 28974 ft | 331 kts | 280° |
| 2026-05-07 19:42 | 51.28842 | 3.25952 | 29668 ft | 334 kts | 280° |
| 2026-05-07 19:43 | 51.29311 | 3.22293 | 30322 ft | 337 kts | 280° |
| 2026-05-07 19:43 | 51.29782 | 3.18602 | 30884 ft | 341 kts | 280° |
| 2026-05-07 19:43 | 51.30256 | 3.14882 | 31441 ft | 344 kts | 280° |
| 2026-05-07 19:43 | 51.30734 | 3.11116 | 31988 ft | 348 kts | 280° |
| 2026-05-07 19:44 | 51.31224 | 3.07248 | 32078 ft | 364 kts | 280° |
| 2026-05-07 19:44 | 51.31734 | 3.03200 | 32088 ft | 379 kts | 280° |
| 2026-05-07 19:44 | 51.32263 | 2.99001 | 32095 ft | 391 kts | 280° |
| 2026-05-07 19:44 | 51.32803 | 2.94714 | 32087 ft | 386 kts | 280° |
| 2026-05-07 19:45 | 51.33834 | 2.86484 | 32087 ft | 375 kts | 280° |
| 2026-05-07 19:45 | 51.34864 | 2.78149 | 32085 ft | 397 kts | 280° |
| 2026-05-07 19:46 | 51.35410 | 2.73736 | 32087 ft | 411 kts | 280° |
| 2026-05-07 19:46 | 51.35976 | 2.69184 | 32090 ft | 420 kts | 280° |
| 2026-05-07 19:46 | 51.36532 | 2.64689 | 32089 ft | 402 kts | 280° |
| 2026-05-07 19:46 | 51.37062 | 2.60374 | 32085 ft | 387 kts | 279° |
| 2026-05-07 19:47 | 51.38077 | 2.52074 | 32071 ft | 379 kts | 279° |
| 2026-05-07 19:47 | 51.39092 | 2.43717 | 32073 ft | 389 kts | 279° |
| 2026-05-07 19:48 | 51.40138 | 2.35060 | 32084 ft | 401 kts | 279° |
| 2026-05-07 19:48 | 51.41203 | 2.26193 | 32090 ft | 409 kts | 279° |
| 2026-05-07 19:49 | 51.42297 | 2.17249 | 32089 ft | 414 kts | 280° |
| 2026-05-07 19:49 | 51.43407 | 2.08148 | 32086 ft | 417 kts | 279° |
| 2026-05-07 19:50 | 51.44513 | 1.98975 | 32090 ft | 419 kts | 279° |
| 2026-05-07 19:50 | 51.45596 | 1.89786 | 32090 ft | 420 kts | 279° |
| 2026-05-07 19:51 | 51.46666 | 1.80618 | 32092 ft | 420 kts | 279° |
| 2026-05-07 19:51 | 51.47729 | 1.71396 | 32090 ft | 420 kts | 279° |
| 2026-05-07 19:52 | 51.48787 | 1.62178 | 32091 ft | 420 kts | 279° |
| 2026-05-07 19:52 | 51.49839 | 1.52934 | 32094 ft | 420 kts | 279° |
| 2026-05-07 19:53 | 51.50864 | 1.43860 | 32094 ft | 420 kts | 279° |
| 2026-05-07 19:53 | 51.51899 | 1.34634 | 32096 ft | 420 kts | 279° |
| 2026-05-07 19:54 | 51.52930 | 1.25381 | 32092 ft | 420 kts | 279° |
| 2026-05-07 19:54 | 51.53952 | 1.16131 | 32091 ft | 420 kts | 278° |
| 2026-05-07 19:55 | 51.54914 | 1.07359 | 32092 ft | 420 kts | 278° |
| 2026-05-07 19:55 | 51.55921 | 0.98103 | 32087 ft | 421 kts | 278° |
| 2026-05-07 19:56 | 51.56922 | 0.88835 | 32085 ft | 421 kts | 278° |
| 2026-05-07 19:56 | 51.57749 | 0.81128 | 32086 ft | 421 kts | 278° |
| 2026-05-07 19:57 | 51.58738 | 0.71836 | 32086 ft | 421 kts | 278° |
| 2026-05-07 19:57 | 51.59658 | 0.63130 | 32087 ft | 421 kts | 278° |
| 2026-05-07 19:58 | 51.60430 | 0.55781 | 32084 ft | 421 kts | 278° |
| 2026-05-07 19:58 | 51.61387 | 0.46588 | 32088 ft | 421 kts | 278° |
| 2026-05-07 19:59 | 51.62325 | 0.37524 | 32081 ft | 422 kts | 278° |
| 2026-05-07 19:59 | 51.63249 | 0.28513 | 32079 ft | 422 kts | 278° |
| 2026-05-07 20:00 | 51.64254 | 0.19201 | 32080 ft | 423 kts | 283° |
| 2026-05-07 20:00 | 51.65284 | 0.14923 | 32077 ft | 427 kts | 296° |
| 2026-05-07 20:00 | 51.66998 | 0.10984 | 32072 ft | 431 kts | 309° |
| 2026-05-07 20:01 | 51.71152 | 0.04491 | 32065 ft | 433 kts | 314° |
| 2026-05-07 20:01 | 51.75339 | -0.02460 | 32065 ft | 431 kts | 310° |
| 2026-05-07 20:02 | 51.76732 | -0.04831 | 32063 ft | 432 kts | 311° |
| 2026-05-07 20:03 | 51.79487 | -0.09311 | 32058 ft | 432 kts | 312° |
| 2026-05-07 20:03 | 51.83697 | -0.16252 | 32082 ft | 432 kts | 311° |
| 2026-05-07 20:04 | 51.87887 | -0.23231 | 32085 ft | 432 kts | 311° |
| 2026-05-07 20:04 | 51.92087 | -0.30203 | 32088 ft | 432 kts | 311° |
| 2026-05-07 20:05 | 51.96271 | -0.37197 | 32086 ft | 432 kts | 311° |
| 2026-05-07 20:05 | 52.00452 | -0.44190 | 32081 ft | 432 kts | 311° |
| 2026-05-07 20:06 | 52.04574 | -0.51113 | 32075 ft | 432 kts | 311° |
| 2026-05-07 20:06 | 52.08751 | -0.58142 | 32067 ft | 432 kts | 311° |
| 2026-05-07 20:07 | 52.12918 | -0.65179 | 32060 ft | 432 kts | 311° |
| 2026-05-07 20:07 | 52.17058 | -0.72186 | 32050 ft | 432 kts | 311° |
| 2026-05-07 20:08 | 52.21141 | -0.79110 | 32049 ft | 395 kts | 311° |
| 2026-05-07 20:08 | 52.22983 | -0.82236 | 32038 ft | 371 kts | 310° |
| 2026-05-07 20:08 | 52.24809 | -0.85199 | 32036 ft | 381 kts | 317° |
| 2026-05-07 20:09 | 52.29378 | -0.89933 | 30858 ft | 390 kts | 327° |
| 2026-05-07 20:09 | 52.31048 | -0.91463 | 30264 ft | 387 kts | 327° |
| 2026-05-07 20:10 | 52.35493 | -0.95939 | 28476 ft | 376 kts | 324° |
| 2026-05-07 20:10 | 52.37601 | -0.98076 | 27740 ft | 371 kts | 326° |
| 2026-05-07 20:10 | 52.39810 | -1.00250 | 27038 ft | 368 kts | 326° |
| 2026-05-07 20:10 | 52.41990 | -1.02406 | 26428 ft | 364 kts | 325° |
| 2026-05-07 20:11 | 52.44140 | -1.04572 | 25791 ft | 361 kts | 325° |
| 2026-05-07 20:11 | 52.46280 | -1.06730 | 25187 ft | 359 kts | 325° |
| 2026-05-07 20:11 | 52.48321 | -1.08776 | 24636 ft | 356 kts | 326° |
| 2026-05-07 20:11 | 52.50366 | -1.10825 | 24095 ft | 352 kts | 325° |
| 2026-05-07 20:12 | 52.52449 | -1.12922 | 23339 ft | 353 kts | 325° |
| 2026-05-07 20:12 | 52.54526 | -1.15016 | 22867 ft | 348 kts | 326° |
| 2026-05-07 20:12 | 52.56597 | -1.17102 | 22713 ft | 344 kts | 326° |
| 2026-05-07 20:12 | 52.58639 | -1.19160 | 22018 ft | 345 kts | 326° |
| 2026-05-07 20:13 | 52.60673 | -1.21216 | 21475 ft | 342 kts | 326° |
| 2026-05-07 20:13 | 52.62697 | -1.23262 | 20945 ft | 340 kts | 326° |
| 2026-05-07 20:13 | 52.64680 | -1.25268 | 20436 ft | 338 kts | 326° |
| 2026-05-07 20:13 | 52.66704 | -1.27318 | 20011 ft | 334 kts | 326° |
| 2026-05-07 20:14 | 52.68615 | -1.29253 | 19996 ft | 319 kts | 326° |
| 2026-05-07 20:14 | 52.70478 | -1.31144 | 19987 ft | 315 kts | 326° |
| 2026-05-07 20:14 | 52.72349 | -1.33048 | 19986 ft | 317 kts | 326° |
| 2026-05-07 20:14 | 52.74237 | -1.34973 | 20041 ft | 319 kts | 326° |
| 2026-05-07 20:15 | 52.76129 | -1.36901 | 20039 ft | 321 kts | 326° |
| 2026-05-07 20:15 | 52.78050 | -1.38860 | 20042 ft | 331 kts | 326° |
| 2026-05-07 20:15 | 52.80056 | -1.40908 | 20050 ft | 347 kts | 326° |
| 2026-05-07 20:15 | 52.82149 | -1.43049 | 20062 ft | 360 kts | 326° |
| 2026-05-07 20:16 | 52.84245 | -1.45193 | 19739 ft | 348 kts | 326° |
| 2026-05-07 20:16 | 52.86349 | -1.47360 | 18778 ft | 360 kts | 326° |
| 2026-05-07 20:16 | 52.88468 | -1.49536 | 18260 ft | 355 kts | 326° |
| 2026-05-07 20:16 | 52.90566 | -1.51685 | 17614 ft | 353 kts | 326° |
| 2026-05-07 20:17 | 52.92648 | -1.53825 | 17020 ft | 351 kts | 326° |
| 2026-05-07 20:17 | 52.94717 | -1.55958 | 16456 ft | 348 kts | 326° |
| 2026-05-07 20:17 | 52.96765 | -1.58071 | 15904 ft | 346 kts | 326° |
| 2026-05-07 20:17 | 52.98801 | -1.60171 | 15377 ft | 343 kts | 326° |
| 2026-05-07 20:18 | 53.00824 | -1.62261 | 14881 ft | 341 kts | 326° |
| 2026-05-07 20:18 | 53.02832 | -1.64339 | 14391 ft | 339 kts | 326° |
| 2026-05-07 20:18 | 53.04802 | -1.66405 | 13924 ft | 336 kts | 323° |
| 2026-05-07 20:18 | 53.06505 | -1.69005 | 13416 ft | 330 kts | 309° |
| 2026-05-07 20:19 | 53.07972 | -1.71906 | 12980 ft | 326 kts | 307° |
| 2026-05-07 20:19 | 53.09411 | -1.74796 | 12547 ft | 323 kts | 307° |
| 2026-05-07 20:19 | 53.10794 | -1.77470 | 12156 ft | 320 kts | 308° |
| 2026-05-07 20:19 | 53.12247 | -1.80249 | 11757 ft | 317 kts | 308° |
| 2026-05-07 20:20 | 53.13676 | -1.83023 | 11369 ft | 314 kts | 308° |
| 2026-05-07 20:20 | 53.15089 | -1.85785 | 10992 ft | 311 kts | 308° |
| 2026-05-07 20:20 | 53.16490 | -1.88516 | 10615 ft | 309 kts | 308° |
| 2026-05-07 20:20 | 53.17882 | -1.91224 | 10275 ft | 306 kts | 308° |
| 2026-05-07 20:21 | 53.19260 | -1.93913 | 9919 ft | 304 kts | 308° |
| 2026-05-07 20:21 | 53.20630 | -1.96589 | 9534 ft | 303 kts | 308° |
| 2026-05-07 20:21 | 53.21971 | -1.99213 | 9159 ft | 302 kts | 308° |
| 2026-05-07 20:21 | 53.23332 | -2.01877 | 8807 ft | 301 kts | 308° |
| 2026-05-07 20:22 | 53.24594 | -2.04456 | 8455 ft | 298 kts | 302° |
| 2026-05-07 20:22 | 53.25417 | -2.06319 | 8194 ft | 300 kts | 310° |
| 2026-05-07 20:22 | 53.27159 | -2.08140 | 8022 ft | 301 kts | 340° |
| 2026-05-07 20:22 | 53.29215 | -2.08482 | 8018 ft | 294 kts | 0° |
| 2026-05-07 20:23 | 53.31235 | -2.08223 | 7979 ft | 290 kts | 4° |
| 2026-05-07 20:23 | 53.33223 | -2.07856 | 7429 ft | 287 kts | 6° |
| 2026-05-07 20:23 | 53.35178 | -2.07229 | 6798 ft | 283 kts | 12° |
| 2026-05-07 20:23 | 53.37055 | -2.06230 | 5976 ft | 283 kts | 22° |
| 2026-05-07 20:24 | 53.38824 | -2.04835 | 5213 ft | 280 kts | 26° |
| 2026-05-07 20:24 | 53.40463 | -2.03143 | 4418 ft | 276 kts | 43° |
| 2026-05-07 20:24 | 53.41799 | -2.00855 | 3702 ft | 272 kts | 50° |
| 2026-05-07 20:24 | 53.43015 | -1.98574 | 3505 ft | 248 kts | 50° |
| 2026-05-07 20:25 | 53.44107 | -1.96518 | 3496 ft | 226 kts | 51° |
| 2026-05-07 20:25 | 53.45162 | -1.94675 | 3491 ft | 214 kts | 38° |
| 2026-05-07 20:25 | 53.46532 | -1.94000 | 3493 ft | 204 kts | 353° |
| 2026-05-07 20:25 | 53.47745 | -1.94979 | 3497 ft | 192 kts | 308° |
| 2026-05-07 20:26 | 53.48238 | -1.96982 | 3496 ft | 186 kts | 274° |
| 2026-05-07 20:26 | 53.48395 | -1.99169 | 3495 ft | 190 kts | 271° |
| 2026-05-07 20:26 | 53.48120 | -2.01221 | 3500 ft | 179 kts | 230° |
| 2026-05-07 20:26 | 53.47288 | -2.02782 | 3511 ft | 182 kts | 227° |
| 2026-05-07 20:27 | 53.46483 | -2.04413 | 3530 ft | 185 kts | 228° |
| 2026-05-07 20:27 | 53.45651 | -2.06158 | 3322 ft | 191 kts | 229° |
| 2026-05-07 20:27 | 53.44829 | -2.07869 | 3063 ft | 189 kts | 228° |
| 2026-05-07 20:27 | 53.44011 | -2.09561 | 2810 ft | 184 kts | 228° |
| 2026-05-07 20:28 | 53.43214 | -2.11220 | 2553 ft | 173 kts | 228° |
| 2026-05-07 20:28 | 53.42473 | -2.12759 | 2326 ft | 171 kts | 228° |
| 2026-05-07 20:28 | 53.41741 | -2.14283 | 2094 ft | 161 kts | 227° |
| 2026-05-07 20:28 | 53.41065 | -2.15691 | 1879 ft | 149 kts | 227° |
| 2026-05-07 20:29 | 53.40438 | -2.16999 | 1689 ft | 140 kts | 227° |
| 2026-05-07 20:29 | 53.39851 | -2.18223 | 1491 ft | 130 kts | 227° |
| 2026-05-07 20:29 | 53.39317 | -2.19336 | 1321 ft | 116 kts | 226° |
| 2026-05-07 20:29 | 53.38801 | -2.20388 | 1154 ft | 118 kts | 228° |
| 2026-05-07 20:30 | 53.38287 | -2.21456 | 987 ft | 118 kts | 228° |
| 2026-05-07 20:30 | 53.37771 | -2.22526 | 822 ft | 121 kts | 230° |
| 2026-05-07 20:30 | 53.37241 | -2.23643 | 658 ft | 124 kts | 229° |
| 2026-05-07 20:30 | 53.36685 | -2.24780 | 486 ft | 129 kts | 230° |
| 2026-05-07 20:31 | 53.36120 | -2.25962 | 303 ft | 130 kts | 230° |
| 2026-05-07 20:31 | 53.35611 | -2.27008 | 254 ft | 85 kts | 231° |
| 2026-05-07 20:31 | 53.35355 | -2.27538 | 245 ft | 36 kts | 231° |
| 2026-05-07 20:31 | 53.35259 | -2.27856 | 235 ft | 28 kts | 256° |
| 2026-05-07 20:32 | 53.35238 | -2.28091 | 233 ft | 18 kts | 262° |
| 2026-05-07 20:32 | 53.35231 | -2.28215 | 230 ft | 2 kts | 283° |
| 2026-05-07 20:32 | 53.35249 | -2.28231 | 231 ft | 6 kts | 341° |
| 2026-05-07 20:32 | 53.35262 | -2.28236 | 230 ft | 0 kts | 355° |
| 2026-05-07 20:33 | 53.35275 | -2.28233 | 230 ft | 6 kts | 14° |
| 2026-05-07 20:33 | 53.35313 | -2.28206 | 232 ft | 8 kts | 25° |
| 2026-05-07 20:33 | 53.35379 | -2.28171 | 235 ft | 13 kts | 12° |
| 2026-05-07 20:33 | 53.35478 | -2.28143 | 237 ft | 16 kts | 8° |
| 2026-05-07 20:34 | 53.35569 | -2.28130 | 239 ft | 7 kts | 4° |
| 2026-05-07 20:34 | 53.35584 | -2.28128 | 239 ft | 0 kts | 6° |